AAL3252 KMIA-KSEA
Flight info
| Callsign | AAL3252 |
|---|---|
| Flight time | 5h 59m |
| Altitude | 36000 |
| Route | HURCN4 SMELZ Q116 JAWJA MEMFS BUM DRABS/N0487F380 PECKS GCC BIL MLP GLASR3 |
| Aircraft | B77W/H-SDE1E2E3FGHIJ2J3J4J5M1RWXY/LB1D1 |
Departure
| Time | 2026-05-06 20:12 |
|---|---|
| Airport | Miami International Airport (KMIA) |
Arrival
| Time | 2026-05-07 02:11 |
|---|---|
| Airport | Seattle–Tacoma International Airport (KSEA) |
| Time | Latitude | Longitude | Altitude | Speed | Heading |
|---|---|---|---|---|---|
| 2026-05-06 19:40 | 25.79799 | -80.27530 | 25 ft | 0 kts | 177° |
| 2026-05-06 19:43 | 25.79794 | -80.27530 | 25 ft | 0 kts | 176° |
| 2026-05-06 20:02 | 25.79800 | -80.27530 | 25 ft | 4 kts | 177° |
| 2026-05-06 20:02 | 25.79827 | -80.27530 | 38 ft | 4 kts | 192° |
| 2026-05-06 20:03 | 25.79847 | -80.27520 | 30 ft | 4 kts | 253° |
| 2026-05-06 20:03 | 25.79852 | -80.27519 | 30 ft | 1 kts | 339° |
| 2026-05-06 20:07 | 25.79856 | -80.27520 | 25 ft | 5 kts | 340° |
| 2026-05-06 20:07 | 25.79943 | -80.27545 | 25 ft | 16 kts | 329° |
| 2026-05-06 20:07 | 25.80034 | -80.27632 | 26 ft | 18 kts | 320° |
| 2026-05-06 20:07 | 25.80058 | -80.27765 | 21 ft | 19 kts | 266° |
| 2026-05-06 20:08 | 25.80051 | -80.27927 | 18 ft | 23 kts | 269° |
| 2026-05-06 20:08 | 25.80044 | -80.28112 | 19 ft | 25 kts | 268° |
| 2026-05-06 20:08 | 25.80036 | -80.28308 | 25 ft | 27 kts | 267° |
| 2026-05-06 20:08 | 25.80030 | -80.28526 | 22 ft | 30 kts | 268° |
| 2026-05-06 20:09 | 25.80020 | -80.28738 | 28 ft | 25 kts | 265° |
| 2026-05-06 20:09 | 25.80009 | -80.28944 | 31 ft | 28 kts | 266° |
| 2026-05-06 20:09 | 25.79999 | -80.29172 | 27 ft | 30 kts | 268° |
| 2026-05-06 20:09 | 25.79990 | -80.29421 | 25 ft | 35 kts | 268° |
| 2026-05-06 20:10 | 25.79980 | -80.29678 | 20 ft | 25 kts | 267° |
| 2026-05-06 20:10 | 25.79971 | -80.29869 | 18 ft | 25 kts | 267° |
| 2026-05-06 20:10 | 25.79997 | -80.30035 | 18 ft | 20 kts | 288° |
| 2026-05-06 20:10 | 25.80066 | -80.30100 | 20 ft | 13 kts | 10° |
| 2026-05-06 20:11 | 25.80073 | -80.30059 | 19 ft | 6 kts | 116° |
| 2026-05-06 20:11 | 25.80075 | -80.30014 | 18 ft | 13 kts | 85° |
| 2026-05-06 20:11 | 25.80076 | -80.30005 | 18 ft | 13 kts | 85° |
| 2026-05-06 20:11 | 25.80098 | -80.29489 | 21 ft | 121 kts | 87° |
| 2026-05-06 20:12 | 25.80150 | -80.28175 | 126 ft | 207 kts | 88° |
| 2026-05-06 20:12 | 25.80234 | -80.26460 | 698 ft | 234 kts | 88° |
| 2026-05-06 20:12 | 25.80303 | -80.25269 | 1046 ft | 233 kts | 87° |
| 2026-05-06 20:12 | 25.80436 | -80.22893 | 2234 ft | 237 kts | 87° |
| 2026-05-06 20:13 | 25.80509 | -80.21027 | 3023 ft | 248 kts | 88° |
| 2026-05-06 20:13 | 25.80547 | -80.19744 | 3506 ft | 255 kts | 88° |
| 2026-05-06 20:13 | 25.80919 | -80.17804 | 4210 ft | 264 kts | 60° |
| 2026-05-06 20:13 | 25.82187 | -80.16345 | 5024 ft | 269 kts | 27° |
| 2026-05-06 20:14 | 25.83988 | -80.15854 | 5900 ft | 268 kts | 1° |
| 2026-05-06 20:14 | 25.85876 | -80.15808 | 6697 ft | 275 kts | 1° |
| 2026-05-06 20:14 | 25.87799 | -80.15754 | 7526 ft | 278 kts | 1° |
| 2026-05-06 20:14 | 25.89722 | -80.15795 | 8431 ft | 278 kts | 350° |
| 2026-05-06 20:15 | 25.91599 | -80.16422 | 9144 ft | 285 kts | 341° |
| 2026-05-06 20:15 | 25.93459 | -80.17118 | 10116 ft | 283 kts | 342° |
| 2026-05-06 20:15 | 25.95368 | -80.17798 | 10830 ft | 293 kts | 343° |
| 2026-05-06 20:15 | 25.97318 | -80.18539 | 11435 ft | 302 kts | 335° |
| 2026-05-06 20:16 | 25.98995 | -80.20015 | 12001 ft | 318 kts | 311° |
| 2026-05-06 20:16 | 26.00082 | -80.22189 | 12660 ft | 328 kts | 296° |
| 2026-05-06 20:16 | 26.00952 | -80.24579 | 13260 ft | 340 kts | 295° |
| 2026-05-06 20:16 | 26.01826 | -80.27061 | 13931 ft | 349 kts | 295° |
| 2026-05-06 20:17 | 26.02719 | -80.29609 | 14510 ft | 359 kts | 295° |
| 2026-05-06 20:17 | 26.03639 | -80.32216 | 15177 ft | 365 kts | 295° |
| 2026-05-06 20:17 | 26.04575 | -80.34851 | 15939 ft | 368 kts | 295° |
| 2026-05-06 20:17 | 26.05523 | -80.37505 | 16788 ft | 369 kts | 295° |
| 2026-05-06 20:18 | 26.06474 | -80.40157 | 17602 ft | 371 kts | 294° |
| 2026-05-06 20:18 | 26.07437 | -80.42834 | 18401 ft | 374 kts | 294° |
| 2026-05-06 20:18 | 26.08405 | -80.45525 | 19108 ft | 376 kts | 294° |
| 2026-05-06 20:18 | 26.09379 | -80.48233 | 19811 ft | 378 kts | 294° |
| 2026-05-06 20:19 | 26.10360 | -80.50961 | 20530 ft | 381 kts | 294° |
| 2026-05-06 20:19 | 26.11344 | -80.53700 | 21262 ft | 382 kts | 294° |
| 2026-05-06 20:19 | 26.12378 | -80.56426 | 21932 ft | 381 kts | 300° |
| 2026-05-06 20:19 | 26.13991 | -80.58764 | 22463 ft | 384 kts | 317° |
| 2026-05-06 20:20 | 26.16141 | -80.60528 | 23150 ft | 387 kts | 331° |
| 2026-05-06 20:20 | 26.18555 | -80.61759 | 23808 ft | 388 kts | 335° |
| 2026-05-06 20:20 | 26.21066 | -80.62916 | 24340 ft | 392 kts | 336° |
| 2026-05-06 20:20 | 26.23602 | -80.64071 | 24870 ft | 396 kts | 336° |
| 2026-05-06 20:21 | 26.26157 | -80.65253 | 25414 ft | 399 kts | 335° |
| 2026-05-06 20:21 | 26.28727 | -80.66462 | 25963 ft | 403 kts | 335° |
| 2026-05-06 20:21 | 26.31315 | -80.67695 | 26500 ft | 406 kts | 334° |
| 2026-05-06 20:21 | 26.33923 | -80.68945 | 27048 ft | 409 kts | 334° |
| 2026-05-06 20:22 | 26.36548 | -80.70205 | 27587 ft | 413 kts | 334° |
| 2026-05-06 20:22 | 26.39178 | -80.71506 | 28083 ft | 414 kts | 330° |
| 2026-05-06 20:22 | 26.41544 | -80.73336 | 28500 ft | 416 kts | 314° |
| 2026-05-06 20:22 | 26.43500 | -80.75713 | 28953 ft | 417 kts | 310° |
| 2026-05-06 20:23 | 26.45428 | -80.78149 | 29466 ft | 421 kts | 311° |
| 2026-05-06 20:23 | 26.47396 | -80.80585 | 29982 ft | 424 kts | 311° |
| 2026-05-06 20:23 | 26.49394 | -80.83015 | 30436 ft | 426 kts | 311° |
| 2026-05-06 20:23 | 26.51414 | -80.85454 | 30873 ft | 428 kts | 311° |
| 2026-05-06 20:24 | 26.53439 | -80.87901 | 31302 ft | 430 kts | 311° |
| 2026-05-06 20:24 | 26.55473 | -80.90361 | 31708 ft | 432 kts | 311° |
| 2026-05-06 20:24 | 26.57514 | -80.92832 | 32092 ft | 434 kts | 311° |
| 2026-05-06 20:24 | 26.59570 | -80.95325 | 32453 ft | 437 kts | 311° |
| 2026-05-06 20:25 | 26.61627 | -80.97821 | 32803 ft | 438 kts | 311° |
| 2026-05-06 20:25 | 26.63700 | -81.00338 | 33137 ft | 440 kts | 311° |
| 2026-05-06 20:25 | 26.65775 | -81.02859 | 33449 ft | 442 kts | 311° |
| 2026-05-06 20:25 | 26.67835 | -81.05363 | 33745 ft | 444 kts | 311° |
| 2026-05-06 20:26 | 26.69956 | -81.07943 | 34053 ft | 446 kts | 311° |
| 2026-05-06 20:26 | 26.72032 | -81.10468 | 34272 ft | 447 kts | 311° |
| 2026-05-06 20:26 | 26.74165 | -81.13066 | 34490 ft | 449 kts | 311° |
| 2026-05-06 20:26 | 26.76253 | -81.15608 | 34725 ft | 449 kts | 310° |
| 2026-05-06 20:27 | 26.78356 | -81.18172 | 35131 ft | 445 kts | 310° |
| 2026-05-06 20:27 | 26.80467 | -81.20745 | 35601 ft | 441 kts | 310° |
| 2026-05-06 20:27 | 26.82506 | -81.23233 | 35916 ft | 440 kts | 310° |
| 2026-05-06 20:27 | 26.84585 | -81.25773 | 35973 ft | 445 kts | 310° |
| 2026-05-06 20:28 | 26.88786 | -81.30910 | 36042 ft | 448 kts | 310° |
| 2026-05-06 20:28 | 26.92970 | -81.36028 | 36045 ft | 443 kts | 310° |
| 2026-05-06 20:29 | 26.97117 | -81.41109 | 36053 ft | 441 kts | 310° |
| 2026-05-06 20:29 | 27.01252 | -81.46182 | 36053 ft | 441 kts | 310° |
| 2026-05-06 20:30 | 27.07992 | -81.53160 | 36069 ft | 444 kts | 324° |
| 2026-05-06 20:31 | 27.13259 | -81.56830 | 36063 ft | 447 kts | 324° |
| 2026-05-06 20:31 | 27.18531 | -81.60570 | 36059 ft | 450 kts | 324° |
| 2026-05-06 20:32 | 27.23812 | -81.64376 | 36055 ft | 452 kts | 323° |
| 2026-05-06 20:32 | 27.29098 | -81.68204 | 36059 ft | 452 kts | 323° |
| 2026-05-06 20:33 | 27.34383 | -81.72033 | 36052 ft | 451 kts | 323° |
| 2026-05-06 20:33 | 27.39655 | -81.75856 | 36052 ft | 450 kts | 323° |
| 2026-05-06 20:34 | 27.44911 | -81.79671 | 36058 ft | 449 kts | 323° |
| 2026-05-06 20:34 | 27.50470 | -81.82913 | 36069 ft | 452 kts | 332° |
| 2026-05-06 20:35 | 27.56291 | -81.85600 | 36062 ft | 452 kts | 333° |
| 2026-05-06 20:35 | 27.62096 | -81.88305 | 36064 ft | 451 kts | 332° |
| 2026-05-06 20:36 | 27.67825 | -81.91067 | 36054 ft | 450 kts | 332° |
| 2026-05-06 20:36 | 27.73575 | -81.93876 | 36068 ft | 450 kts | 332° |
| 2026-05-06 20:37 | 27.79324 | -81.96690 | 36057 ft | 450 kts | 332° |
| 2026-05-06 20:37 | 27.85069 | -81.99501 | 36057 ft | 450 kts | 332° |
| 2026-05-06 20:38 | 27.90814 | -82.02315 | 36046 ft | 450 kts | 332° |
| 2026-05-06 20:38 | 27.96554 | -82.05129 | 36050 ft | 450 kts | 332° |
| 2026-05-06 20:39 | 28.02293 | -82.07947 | 36055 ft | 449 kts | 332° |
| 2026-05-06 20:39 | 28.08021 | -82.10776 | 36073 ft | 448 kts | 330° |
| 2026-05-06 20:40 | 28.13219 | -82.14503 | 36067 ft | 441 kts | 320° |
| 2026-05-06 20:40 | 28.18169 | -82.18616 | 36066 ft | 441 kts | 320° |
| 2026-05-06 20:41 | 28.23133 | -82.22698 | 36056 ft | 441 kts | 320° |
| 2026-05-06 20:41 | 28.28144 | -82.26738 | 36071 ft | 442 kts | 321° |
| 2026-05-06 20:42 | 28.33168 | -82.30758 | 36056 ft | 442 kts | 321° |
| 2026-05-06 20:42 | 28.38187 | -82.34776 | 36058 ft | 442 kts | 321° |
| 2026-05-06 20:43 | 28.43205 | -82.38799 | 36062 ft | 441 kts | 321° |
| 2026-05-06 20:43 | 28.48217 | -82.42824 | 36067 ft | 441 kts | 321° |
| 2026-05-06 20:44 | 28.53218 | -82.46846 | 36064 ft | 440 kts | 320° |
| 2026-05-06 20:44 | 28.58182 | -82.50843 | 36067 ft | 440 kts | 320° |
| 2026-05-06 20:45 | 28.63174 | -82.54868 | 36062 ft | 440 kts | 320° |
| 2026-05-06 20:45 | 28.68159 | -82.58891 | 36076 ft | 439 kts | 320° |
| 2026-05-06 20:46 | 28.73144 | -82.62918 | 36084 ft | 439 kts | 320° |
| 2026-05-06 20:46 | 28.78121 | -82.66945 | 36079 ft | 439 kts | 320° |
| 2026-05-06 20:47 | 28.83095 | -82.70974 | 36081 ft | 438 kts | 320° |
| 2026-05-06 20:47 | 28.88068 | -82.75006 | 36077 ft | 438 kts | 320° |
| 2026-05-06 20:48 | 28.93031 | -82.79036 | 36075 ft | 438 kts | 320° |
| 2026-05-06 20:48 | 28.97996 | -82.83073 | 36070 ft | 438 kts | 320° |
| 2026-05-06 20:49 | 29.02957 | -82.87111 | 36065 ft | 438 kts | 320° |
| 2026-05-06 20:49 | 29.07915 | -82.91151 | 36061 ft | 438 kts | 320° |
| 2026-05-06 20:50 | 29.12837 | -82.95175 | 36060 ft | 438 kts | 320° |
| 2026-05-06 20:50 | 29.17786 | -82.99227 | 36062 ft | 437 kts | 320° |
| 2026-05-06 20:51 | 29.22731 | -83.03280 | 36064 ft | 437 kts | 320° |
| 2026-05-06 20:51 | 29.27675 | -83.07335 | 36064 ft | 437 kts | 320° |
| 2026-05-06 20:52 | 29.32621 | -83.11390 | 36065 ft | 437 kts | 319° |
| 2026-05-06 20:52 | 29.37561 | -83.15446 | 36074 ft | 437 kts | 319° |
| 2026-05-06 20:53 | 29.42498 | -83.19505 | 36068 ft | 436 kts | 319° |
| 2026-05-06 20:53 | 29.47426 | -83.23563 | 36072 ft | 436 kts | 319° |
| 2026-05-06 20:54 | 29.52356 | -83.27626 | 36070 ft | 436 kts | 319° |
| 2026-05-06 20:54 | 29.57278 | -83.31689 | 36071 ft | 436 kts | 319° |
| 2026-05-06 20:55 | 29.62199 | -83.35756 | 36070 ft | 436 kts | 319° |
| 2026-05-06 20:55 | 29.67119 | -83.39828 | 36069 ft | 435 kts | 319° |
| 2026-05-06 20:56 | 29.72030 | -83.43896 | 36067 ft | 435 kts | 319° |
| 2026-05-06 20:56 | 29.76914 | -83.47948 | 36069 ft | 435 kts | 319° |
| 2026-05-06 20:57 | 29.81827 | -83.52028 | 36070 ft | 436 kts | 319° |
| 2026-05-06 20:57 | 29.86739 | -83.56111 | 36075 ft | 436 kts | 319° |
| 2026-05-06 20:58 | 29.91660 | -83.60189 | 36080 ft | 436 kts | 319° |
| 2026-05-06 20:58 | 29.96583 | -83.64270 | 36081 ft | 436 kts | 318° |
| 2026-05-06 20:59 | 30.01505 | -83.68358 | 36083 ft | 436 kts | 318° |
| 2026-05-06 20:59 | 30.06425 | -83.72451 | 36081 ft | 436 kts | 318° |
| 2026-05-06 21:00 | 30.11344 | -83.76548 | 36077 ft | 436 kts | 318° |
| 2026-05-06 21:00 | 30.16244 | -83.80664 | 36070 ft | 434 kts | 316° |
| 2026-05-06 21:01 | 30.20655 | -83.85334 | 36066 ft | 428 kts | 309° |
| 2026-05-06 21:01 | 30.24814 | -83.90263 | 36058 ft | 428 kts | 309° |
| 2026-05-06 21:02 | 30.28980 | -83.95191 | 36053 ft | 428 kts | 309° |
| 2026-05-06 21:02 | 30.33155 | -84.00117 | 36053 ft | 428 kts | 309° |
| 2026-05-06 21:03 | 30.37328 | -84.05040 | 36047 ft | 429 kts | 309° |
| 2026-05-06 21:03 | 30.40799 | -84.09138 | 36047 ft | 429 kts | 309° |
| 2026-05-06 21:04 | 30.44970 | -84.14067 | 36042 ft | 428 kts | 309° |
| 2026-05-06 21:04 | 30.49141 | -84.19004 | 36043 ft | 428 kts | 309° |
| 2026-05-06 21:05 | 30.53306 | -84.23941 | 36047 ft | 428 kts | 309° |
| 2026-05-06 21:05 | 30.57464 | -84.28875 | 36052 ft | 427 kts | 309° |
| 2026-05-06 21:06 | 30.61610 | -84.33800 | 36043 ft | 426 kts | 309° |
| 2026-05-06 21:06 | 30.65750 | -84.38728 | 36045 ft | 427 kts | 309° |
| 2026-05-06 21:07 | 30.69902 | -84.43676 | 36045 ft | 428 kts | 309° |
| 2026-05-06 21:07 | 30.74053 | -84.48628 | 36048 ft | 428 kts | 309° |
| 2026-05-06 21:08 | 30.78208 | -84.53592 | 36038 ft | 428 kts | 309° |
| 2026-05-06 21:08 | 30.82359 | -84.58557 | 36040 ft | 428 kts | 309° |
| 2026-05-06 21:09 | 30.86514 | -84.63532 | 36039 ft | 428 kts | 309° |
| 2026-05-06 21:09 | 30.90662 | -84.68507 | 36041 ft | 428 kts | 309° |
| 2026-05-06 21:10 | 30.94797 | -84.73473 | 36036 ft | 428 kts | 309° |
| 2026-05-06 21:10 | 30.98955 | -84.78473 | 36038 ft | 428 kts | 309° |
| 2026-05-06 21:11 | 31.03072 | -84.83430 | 36041 ft | 429 kts | 309° |
| 2026-05-06 21:11 | 31.07222 | -84.88434 | 36043 ft | 429 kts | 308° |
| 2026-05-06 21:12 | 31.11368 | -84.93439 | 36045 ft | 429 kts | 308° |
| 2026-05-06 21:12 | 31.15518 | -84.98457 | 36042 ft | 430 kts | 308° |
| 2026-05-06 21:13 | 31.19675 | -85.03490 | 36046 ft | 431 kts | 308° |
| 2026-05-06 21:13 | 31.23838 | -85.08535 | 36046 ft | 431 kts | 308° |
| 2026-05-06 21:14 | 31.27999 | -85.13586 | 36044 ft | 432 kts | 308° |
| 2026-05-06 21:14 | 31.32160 | -85.18644 | 36054 ft | 432 kts | 308° |
| 2026-05-06 21:15 | 31.36321 | -85.23709 | 36054 ft | 432 kts | 308° |
| 2026-05-06 21:15 | 31.40479 | -85.28776 | 36052 ft | 432 kts | 308° |
| 2026-05-06 21:16 | 31.44638 | -85.33852 | 36047 ft | 432 kts | 308° |
| 2026-05-06 21:16 | 31.48790 | -85.38926 | 36048 ft | 432 kts | 308° |
| 2026-05-06 21:17 | 31.52941 | -85.44007 | 36044 ft | 431 kts | 308° |
| 2026-05-06 21:17 | 31.57086 | -85.49085 | 36038 ft | 431 kts | 308° |
| 2026-05-06 21:18 | 31.61232 | -85.54172 | 36014 ft | 430 kts | 308° |
| 2026-05-06 21:18 | 31.65361 | -85.59247 | 36014 ft | 430 kts | 308° |
| 2026-05-06 21:19 | 31.69490 | -85.64329 | 36014 ft | 429 kts | 308° |
| 2026-05-06 21:19 | 31.73607 | -85.69402 | 36009 ft | 429 kts | 308° |
| 2026-05-06 21:20 | 31.77690 | -85.74439 | 36007 ft | 428 kts | 308° |
| 2026-05-06 21:20 | 31.81816 | -85.79538 | 36002 ft | 428 kts | 308° |
| 2026-05-06 21:21 | 31.85917 | -85.84612 | 35994 ft | 428 kts | 308° |
| 2026-05-06 21:21 | 31.90012 | -85.89687 | 35997 ft | 428 kts | 307° |
| 2026-05-06 21:22 | 31.94083 | -85.94738 | 35993 ft | 428 kts | 307° |
| 2026-05-06 21:22 | 31.98179 | -85.99827 | 35992 ft | 428 kts | 307° |
| 2026-05-06 21:23 | 32.02274 | -86.04922 | 36001 ft | 428 kts | 307° |
| 2026-05-06 21:23 | 32.06368 | -86.10023 | 36004 ft | 428 kts | 307° |
| 2026-05-06 21:24 | 32.10458 | -86.15125 | 35999 ft | 428 kts | 307° |
| 2026-05-06 21:24 | 32.14541 | -86.20226 | 35979 ft | 427 kts | 307° |
| 2026-05-06 21:25 | 32.18612 | -86.25321 | 35953 ft | 426 kts | 307° |
| 2026-05-06 21:25 | 32.22676 | -86.30412 | 35943 ft | 425 kts | 307° |
| 2026-05-06 21:26 | 32.26728 | -86.35496 | 35942 ft | 425 kts | 307° |
| 2026-05-06 21:26 | 32.30776 | -86.40582 | 35946 ft | 424 kts | 307° |
| 2026-05-06 21:27 | 32.34815 | -86.45664 | 35943 ft | 424 kts | 307° |
| 2026-05-06 21:27 | 32.38851 | -86.50750 | 35927 ft | 424 kts | 306° |
| 2026-05-06 21:28 | 32.42886 | -86.55842 | 35949 ft | 425 kts | 306° |
| 2026-05-06 21:28 | 32.46935 | -86.60959 | 35937 ft | 426 kts | 306° |
| 2026-05-06 21:29 | 32.50983 | -86.66079 | 35951 ft | 425 kts | 306° |
| 2026-05-06 21:29 | 32.55025 | -86.71201 | 35964 ft | 426 kts | 306° |
| 2026-05-06 21:30 | 32.59040 | -86.76294 | 35963 ft | 425 kts | 306° |
| 2026-05-06 21:30 | 32.63075 | -86.81422 | 35962 ft | 425 kts | 306° |
| 2026-05-06 21:31 | 32.67108 | -86.86553 | 35956 ft | 425 kts | 306° |
| 2026-05-06 21:31 | 32.71138 | -86.91689 | 35960 ft | 425 kts | 306° |
| 2026-05-06 21:32 | 32.75170 | -86.96834 | 35968 ft | 425 kts | 306° |
| 2026-05-06 21:32 | 32.81220 | -87.04569 | 35953 ft | 426 kts | 306° |
| 2026-05-06 21:33 | 32.85254 | -87.09734 | 35951 ft | 426 kts | 306° |
| 2026-05-06 21:33 | 32.89288 | -87.14907 | 35949 ft | 426 kts | 305° |
| 2026-05-06 21:34 | 32.93319 | -87.20084 | 35951 ft | 426 kts | 305° |
| 2026-05-06 21:34 | 32.97353 | -87.25273 | 35941 ft | 427 kts | 305° |
| 2026-05-06 21:35 | 33.01378 | -87.30457 | 35944 ft | 427 kts | 305° |
| 2026-05-06 21:35 | 33.05382 | -87.35622 | 35936 ft | 427 kts | 304° |
| 2026-05-06 21:36 | 33.09407 | -87.40820 | 35932 ft | 426 kts | 304° |
| 2026-05-06 21:36 | 33.13420 | -87.46012 | 35939 ft | 425 kts | 304° |
| 2026-05-06 21:37 | 33.17431 | -87.51209 | 35954 ft | 427 kts | 304° |
| 2026-05-06 21:37 | 33.21461 | -87.56442 | 35940 ft | 429 kts | 304° |
| 2026-05-06 21:38 | 33.25494 | -87.61678 | 35932 ft | 427 kts | 304° |
| 2026-05-06 21:38 | 33.29505 | -87.66893 | 35945 ft | 425 kts | 303° |
| 2026-05-06 21:39 | 33.33498 | -87.72096 | 35943 ft | 424 kts | 303° |
| 2026-05-06 21:39 | 33.37479 | -87.77292 | 35937 ft | 423 kts | 303° |
| 2026-05-06 21:40 | 33.41447 | -87.82479 | 35935 ft | 422 kts | 303° |
| 2026-05-06 21:40 | 33.45407 | -87.87663 | 35914 ft | 422 kts | 303° |
| 2026-05-06 21:41 | 33.49365 | -87.92851 | 35918 ft | 422 kts | 302° |
| 2026-05-06 21:41 | 33.53337 | -87.98070 | 35892 ft | 424 kts | 302° |
| 2026-05-06 21:42 | 33.57268 | -88.03233 | 35900 ft | 422 kts | 302° |
| 2026-05-06 21:42 | 33.61248 | -88.08467 | 35906 ft | 420 kts | 302° |
| 2026-05-06 21:43 | 33.65169 | -88.13635 | 35901 ft | 418 kts | 302° |
| 2026-05-06 21:43 | 33.69049 | -88.18761 | 35898 ft | 417 kts | 301° |
| 2026-05-06 21:44 | 33.72939 | -88.23906 | 35897 ft | 416 kts | 301° |
| 2026-05-06 21:44 | 33.76826 | -88.29054 | 35883 ft | 416 kts | 301° |
| 2026-05-06 21:45 | 33.80703 | -88.34197 | 35904 ft | 415 kts | 301° |
| 2026-05-06 21:45 | 33.84577 | -88.39342 | 35911 ft | 415 kts | 301° |
| 2026-05-06 21:46 | 33.88449 | -88.44492 | 35915 ft | 414 kts | 301° |
| 2026-05-06 21:46 | 33.92310 | -88.49636 | 35920 ft | 414 kts | 301° |
| 2026-05-06 21:47 | 33.96173 | -88.54788 | 35932 ft | 414 kts | 301° |
| 2026-05-06 21:47 | 34.00029 | -88.59938 | 35959 ft | 414 kts | 301° |
| 2026-05-06 21:48 | 34.03881 | -88.65093 | 35976 ft | 413 kts | 301° |
| 2026-05-06 21:48 | 34.07725 | -88.70242 | 35990 ft | 413 kts | 301° |
| 2026-05-06 21:49 | 34.11568 | -88.75398 | 36006 ft | 413 kts | 300° |
| 2026-05-06 21:49 | 34.15401 | -88.80549 | 36016 ft | 412 kts | 300° |
| 2026-05-06 21:50 | 34.19235 | -88.85707 | 36027 ft | 412 kts | 300° |
| 2026-05-06 21:50 | 34.23059 | -88.90862 | 36022 ft | 412 kts | 300° |
| 2026-05-06 21:51 | 34.26851 | -88.95980 | 36025 ft | 412 kts | 300° |
| 2026-05-06 21:51 | 34.30460 | -89.00858 | 36005 ft | 412 kts | 300° |
| 2026-05-06 21:52 | 34.33634 | -89.05152 | 36000 ft | 411 kts | 300° |
| 2026-05-06 21:52 | 34.37444 | -89.10315 | 36002 ft | 411 kts | 300° |
| 2026-05-06 21:53 | 34.41251 | -89.15482 | 35998 ft | 411 kts | 300° |
| 2026-05-06 21:53 | 34.45057 | -89.20657 | 36002 ft | 412 kts | 300° |
| 2026-05-06 21:54 | 34.48870 | -89.25849 | 35990 ft | 412 kts | 300° |
| 2026-05-06 21:54 | 34.52679 | -89.31040 | 36001 ft | 412 kts | 300° |
| 2026-05-06 21:55 | 34.56481 | -89.36229 | 36005 ft | 411 kts | 300° |
| 2026-05-06 21:55 | 34.60278 | -89.41422 | 36007 ft | 411 kts | 300° |
| 2026-05-06 21:56 | 34.64071 | -89.46616 | 36008 ft | 411 kts | 300° |
| 2026-05-06 21:56 | 34.67865 | -89.51820 | 36005 ft | 411 kts | 300° |
| 2026-05-06 21:57 | 34.71655 | -89.57026 | 36025 ft | 411 kts | 300° |
| 2026-05-06 21:57 | 34.75446 | -89.62242 | 36033 ft | 412 kts | 300° |
| 2026-05-06 21:58 | 34.79243 | -89.67475 | 36038 ft | 413 kts | 300° |
| 2026-05-06 21:58 | 34.83025 | -89.72693 | 36040 ft | 414 kts | 300° |
| 2026-05-06 21:59 | 34.86855 | -89.77984 | 36061 ft | 414 kts | 300° |
| 2026-05-06 21:59 | 34.90638 | -89.83221 | 36059 ft | 415 kts | 300° |
| 2026-05-06 22:00 | 34.94446 | -89.88497 | 36037 ft | 414 kts | 299° |
| 2026-05-06 22:00 | 34.98234 | -89.93755 | 36002 ft | 412 kts | 299° |
| 2026-05-06 22:01 | 35.02007 | -89.98994 | 36006 ft | 411 kts | 300° |
| 2026-05-06 22:01 | 35.05912 | -90.04120 | 36007 ft | 413 kts | 301° |
| 2026-05-06 22:02 | 35.09866 | -90.09184 | 36013 ft | 411 kts | 301° |
| 2026-05-06 22:02 | 35.13795 | -90.14245 | 35997 ft | 410 kts | 300° |
| 2026-05-06 22:03 | 35.17701 | -90.19310 | 35993 ft | 409 kts | 300° |
| 2026-05-06 22:03 | 35.21584 | -90.24366 | 35988 ft | 407 kts | 301° |
| 2026-05-06 22:04 | 35.25460 | -90.29428 | 36004 ft | 408 kts | 300° |
| 2026-05-06 22:04 | 35.29336 | -90.34492 | 36017 ft | 408 kts | 300° |
| 2026-05-06 22:05 | 35.33211 | -90.39560 | 36022 ft | 407 kts | 299° |
| 2026-05-06 22:05 | 35.37073 | -90.44619 | 36034 ft | 406 kts | 299° |
| 2026-05-06 22:06 | 35.40894 | -90.49632 | 36046 ft | 404 kts | 299° |
| 2026-05-06 22:06 | 35.44720 | -90.54659 | 36050 ft | 402 kts | 299° |
| 2026-05-06 22:07 | 35.48522 | -90.59662 | 36044 ft | 400 kts | 299° |
| 2026-05-06 22:07 | 35.52301 | -90.64643 | 36050 ft | 397 kts | 299° |
| 2026-05-06 22:08 | 35.56056 | -90.69601 | 36054 ft | 396 kts | 299° |
| 2026-05-06 22:08 | 35.59795 | -90.74546 | 36047 ft | 394 kts | 299° |
| 2026-05-06 22:09 | 35.63520 | -90.79481 | 36041 ft | 393 kts | 299° |
| 2026-05-06 22:09 | 35.67232 | -90.84403 | 36045 ft | 392 kts | 299° |
| 2026-05-06 22:10 | 35.70936 | -90.89324 | 36056 ft | 392 kts | 299° |
| 2026-05-06 22:10 | 35.74641 | -90.94255 | 36049 ft | 392 kts | 299° |
| 2026-05-06 22:11 | 35.78347 | -90.99191 | 36064 ft | 393 kts | 298° |
| 2026-05-06 22:11 | 35.82056 | -91.04139 | 36069 ft | 393 kts | 298° |
| 2026-05-06 22:12 | 35.85760 | -91.09085 | 36067 ft | 392 kts | 298° |
| 2026-05-06 22:12 | 35.89458 | -91.14033 | 36066 ft | 393 kts | 298° |
| 2026-05-06 22:13 | 35.93157 | -91.18989 | 36063 ft | 393 kts | 298° |
| 2026-05-06 22:13 | 35.96858 | -91.23956 | 36067 ft | 393 kts | 298° |
| 2026-05-06 22:14 | 36.00562 | -91.28937 | 36084 ft | 395 kts | 298° |
| 2026-05-06 22:14 | 36.04286 | -91.33955 | 36058 ft | 398 kts | 299° |
| 2026-05-06 22:15 | 36.08019 | -91.38978 | 36068 ft | 395 kts | 298° |
| 2026-05-06 22:15 | 36.11722 | -91.43970 | 36074 ft | 393 kts | 298° |
| 2026-05-06 22:16 | 36.15407 | -91.48951 | 36078 ft | 392 kts | 298° |
| 2026-05-06 22:16 | 36.19077 | -91.53923 | 36085 ft | 391 kts | 298° |
| 2026-05-06 22:17 | 36.22744 | -91.58897 | 36085 ft | 391 kts | 298° |
| 2026-05-06 22:17 | 36.26407 | -91.63872 | 36084 ft | 391 kts | 298° |
| 2026-05-06 22:18 | 36.30071 | -91.68857 | 36080 ft | 391 kts | 298° |
| 2026-05-06 22:18 | 36.33737 | -91.73853 | 36076 ft | 392 kts | 298° |
| 2026-05-06 22:19 | 36.37410 | -91.78862 | 36077 ft | 392 kts | 298° |
| 2026-05-06 22:19 | 36.41078 | -91.83874 | 36077 ft | 393 kts | 298° |
| 2026-05-06 22:20 | 36.44750 | -91.88898 | 36089 ft | 393 kts | 298° |
| 2026-05-06 22:20 | 36.48395 | -91.93893 | 36083 ft | 393 kts | 298° |
| 2026-05-06 22:21 | 36.52061 | -91.98923 | 36086 ft | 392 kts | 298° |
| 2026-05-06 22:21 | 36.55722 | -92.03955 | 36074 ft | 392 kts | 298° |
| 2026-05-06 22:22 | 36.59376 | -92.08985 | 36073 ft | 392 kts | 298° |
| 2026-05-06 22:22 | 36.63025 | -92.14016 | 36068 ft | 391 kts | 298° |
| 2026-05-06 22:23 | 36.66663 | -92.19041 | 36068 ft | 390 kts | 298° |
| 2026-05-06 22:23 | 36.70296 | -92.24064 | 36067 ft | 390 kts | 298° |
| 2026-05-06 22:24 | 36.73918 | -92.29080 | 36075 ft | 389 kts | 298° |
| 2026-05-06 22:24 | 36.77536 | -92.34100 | 36068 ft | 389 kts | 298° |
| 2026-05-06 22:25 | 36.81148 | -92.39118 | 36069 ft | 388 kts | 298° |
| 2026-05-06 22:25 | 36.84746 | -92.44126 | 36064 ft | 387 kts | 298° |
| 2026-05-06 22:26 | 36.88339 | -92.49128 | 36078 ft | 387 kts | 298° |
| 2026-05-06 22:26 | 36.91929 | -92.54145 | 36075 ft | 388 kts | 298° |
| 2026-05-06 22:27 | 36.95530 | -92.59180 | 36075 ft | 388 kts | 298° |
| 2026-05-06 22:27 | 36.99131 | -92.64221 | 36079 ft | 389 kts | 298° |
| 2026-05-06 22:28 | 37.02733 | -92.69274 | 36078 ft | 389 kts | 298° |
| 2026-05-06 22:28 | 37.06335 | -92.74329 | 36086 ft | 389 kts | 298° |
| 2026-05-06 22:29 | 37.09932 | -92.79389 | 36071 ft | 389 kts | 298° |
| 2026-05-06 22:29 | 37.13522 | -92.84444 | 36078 ft | 388 kts | 298° |
| 2026-05-06 22:30 | 37.17108 | -92.89504 | 36071 ft | 388 kts | 298° |
| 2026-05-06 22:30 | 37.20687 | -92.94560 | 36072 ft | 387 kts | 298° |
| 2026-05-06 22:31 | 37.24261 | -92.99619 | 36073 ft | 387 kts | 298° |
| 2026-05-06 22:31 | 37.27807 | -93.04644 | 36067 ft | 387 kts | 298° |
| 2026-05-06 22:32 | 37.31369 | -93.09700 | 36073 ft | 386 kts | 298° |
| 2026-05-06 22:32 | 37.34928 | -93.14762 | 36074 ft | 387 kts | 298° |
| 2026-05-06 22:33 | 37.38485 | -93.19828 | 36071 ft | 387 kts | 298° |
| 2026-05-06 22:33 | 37.42041 | -93.24899 | 36067 ft | 386 kts | 298° |
| 2026-05-06 22:34 | 37.45592 | -93.29973 | 36080 ft | 387 kts | 298° |
| 2026-05-06 22:34 | 37.49149 | -93.35063 | 36075 ft | 387 kts | 298° |
| 2026-05-06 22:35 | 37.52707 | -93.40163 | 36087 ft | 388 kts | 298° |
| 2026-05-06 22:35 | 37.56269 | -93.45274 | 36091 ft | 388 kts | 298° |
| 2026-05-06 22:36 | 37.59830 | -93.50393 | 36100 ft | 388 kts | 298° |
| 2026-05-06 22:36 | 37.63390 | -93.55517 | 36097 ft | 388 kts | 298° |
| 2026-05-06 22:37 | 37.66951 | -93.60652 | 36095 ft | 389 kts | 298° |
| 2026-05-06 22:37 | 37.70507 | -93.65787 | 36098 ft | 388 kts | 298° |
| 2026-05-06 22:38 | 37.74060 | -93.70926 | 36102 ft | 388 kts | 298° |
| 2026-05-06 22:38 | 37.77607 | -93.76065 | 36097 ft | 387 kts | 298° |
| 2026-05-06 22:39 | 37.80548 | -93.80333 | 36100 ft | 387 kts | 298° |
| 2026-05-06 22:39 | 37.84077 | -93.85462 | 36089 ft | 386 kts | 298° |
| 2026-05-06 22:40 | 37.87596 | -93.90582 | 36101 ft | 385 kts | 298° |
| 2026-05-06 22:40 | 37.91111 | -93.95708 | 36105 ft | 385 kts | 298° |
| 2026-05-06 22:41 | 37.96373 | -94.03392 | 36109 ft | 385 kts | 298° |
| 2026-05-06 22:42 | 37.99876 | -94.08521 | 36114 ft | 384 kts | 298° |
| 2026-05-06 22:42 | 38.03374 | -94.13650 | 36117 ft | 384 kts | 298° |
| 2026-05-06 22:43 | 38.06848 | -94.18750 | 36117 ft | 385 kts | 298° |
| 2026-05-06 22:43 | 38.10345 | -94.23894 | 36123 ft | 385 kts | 298° |
| 2026-05-06 22:44 | 38.13843 | -94.29046 | 36120 ft | 385 kts | 298° |
| 2026-05-06 22:44 | 38.17341 | -94.34206 | 36120 ft | 386 kts | 298° |
| 2026-05-06 22:45 | 38.20839 | -94.39376 | 36118 ft | 386 kts | 298° |
| 2026-05-06 22:45 | 38.24336 | -94.44551 | 36123 ft | 386 kts | 298° |
| 2026-05-06 22:46 | 38.27838 | -94.49741 | 36120 ft | 386 kts | 298° |
| 2026-05-06 22:46 | 38.31353 | -94.54921 | 36125 ft | 387 kts | 298° |
| 2026-05-06 22:47 | 38.34881 | -94.60117 | 36126 ft | 388 kts | 298° |
| 2026-05-06 22:47 | 38.38407 | -94.65320 | 36129 ft | 388 kts | 298° |
| 2026-05-06 22:48 | 38.41936 | -94.70540 | 36133 ft | 389 kts | 298° |
| 2026-05-06 22:48 | 38.45462 | -94.75764 | 36135 ft | 389 kts | 298° |
| 2026-05-06 22:49 | 38.48993 | -94.81004 | 36129 ft | 389 kts | 298° |
| 2026-05-06 22:49 | 38.52522 | -94.86251 | 36134 ft | 390 kts | 298° |
| 2026-05-06 22:50 | 38.56052 | -94.91509 | 36120 ft | 390 kts | 298° |
| 2026-05-06 22:50 | 38.59576 | -94.96765 | 36122 ft | 389 kts | 298° |
| 2026-05-06 22:51 | 38.63077 | -95.01995 | 36119 ft | 390 kts | 298° |
| 2026-05-06 22:51 | 38.66602 | -95.07272 | 36118 ft | 391 kts | 298° |
| 2026-05-06 22:52 | 38.70130 | -95.12562 | 36115 ft | 391 kts | 298° |
| 2026-05-06 22:52 | 38.73662 | -95.17866 | 36121 ft | 392 kts | 298° |
| 2026-05-06 22:53 | 38.77225 | -95.23224 | 36120 ft | 392 kts | 298° |
| 2026-05-06 22:53 | 38.80738 | -95.28517 | 36128 ft | 393 kts | 298° |
| 2026-05-06 22:54 | 38.84274 | -95.33853 | 36132 ft | 393 kts | 298° |
| 2026-05-06 22:54 | 38.87813 | -95.39203 | 36130 ft | 393 kts | 298° |
| 2026-05-06 22:55 | 38.91349 | -95.44557 | 36126 ft | 393 kts | 298° |
| 2026-05-06 22:55 | 38.94883 | -95.49917 | 36126 ft | 393 kts | 298° |
| 2026-05-06 22:56 | 38.98413 | -95.55280 | 36129 ft | 393 kts | 298° |
| 2026-05-06 22:56 | 39.01939 | -95.60647 | 36118 ft | 393 kts | 298° |
| 2026-05-06 22:57 | 39.05464 | -95.66020 | 36121 ft | 393 kts | 298° |
| 2026-05-06 22:57 | 39.08982 | -95.71393 | 36133 ft | 392 kts | 298° |
| 2026-05-06 22:58 | 39.12498 | -95.76771 | 36132 ft | 392 kts | 298° |
| 2026-05-06 22:58 | 39.16006 | -95.82145 | 36123 ft | 392 kts | 298° |
| 2026-05-06 22:59 | 39.19437 | -95.87413 | 36130 ft | 392 kts | 298° |
| 2026-05-06 22:59 | 39.22939 | -95.92796 | 36129 ft | 391 kts | 298° |
| 2026-05-06 23:00 | 39.26434 | -95.98180 | 36132 ft | 392 kts | 298° |
| 2026-05-06 23:00 | 39.29927 | -96.03570 | 36130 ft | 392 kts | 298° |
| 2026-05-06 23:01 | 39.33420 | -96.08967 | 36128 ft | 391 kts | 298° |
| 2026-05-06 23:01 | 39.36908 | -96.14366 | 36130 ft | 391 kts | 298° |
| 2026-05-06 23:02 | 39.40389 | -96.19763 | 36128 ft | 391 kts | 298° |
| 2026-05-06 23:02 | 39.43870 | -96.25172 | 36128 ft | 391 kts | 297° |
| 2026-05-06 23:03 | 39.47348 | -96.30584 | 36126 ft | 391 kts | 297° |
| 2026-05-06 23:03 | 39.50824 | -96.36001 | 36126 ft | 391 kts | 297° |
| 2026-05-06 23:04 | 39.54291 | -96.41416 | 36119 ft | 390 kts | 297° |
| 2026-05-06 23:04 | 39.57753 | -96.46828 | 36122 ft | 389 kts | 297° |
| 2026-05-06 23:05 | 39.61205 | -96.52239 | 36130 ft | 390 kts | 297° |
| 2026-05-06 23:05 | 39.64661 | -96.57664 | 36121 ft | 390 kts | 297° |
| 2026-05-06 23:06 | 39.68118 | -96.63100 | 36117 ft | 391 kts | 297° |
| 2026-05-06 23:06 | 39.71559 | -96.68521 | 36116 ft | 392 kts | 297° |
| 2026-05-06 23:07 | 39.75030 | -96.73998 | 36118 ft | 393 kts | 297° |
| 2026-05-06 23:07 | 39.78504 | -96.79488 | 36119 ft | 394 kts | 297° |
| 2026-05-06 23:08 | 39.81988 | -96.85004 | 36124 ft | 395 kts | 297° |
| 2026-05-06 23:08 | 39.85415 | -96.90439 | 36118 ft | 396 kts | 297° |
| 2026-05-06 23:09 | 39.88907 | -96.95987 | 36120 ft | 396 kts | 297° |
| 2026-05-06 23:09 | 39.92403 | -97.01550 | 36119 ft | 397 kts | 297° |
| 2026-05-06 23:10 | 39.95901 | -97.07127 | 36123 ft | 398 kts | 297° |
| 2026-05-06 23:10 | 39.99399 | -97.12716 | 36121 ft | 398 kts | 297° |
| 2026-05-06 23:11 | 40.02900 | -97.18318 | 36119 ft | 398 kts | 297° |
| 2026-05-06 23:11 | 40.06403 | -97.23932 | 36123 ft | 399 kts | 297° |
| 2026-05-06 23:12 | 40.09907 | -97.29559 | 36128 ft | 400 kts | 297° |
| 2026-05-06 23:12 | 40.13412 | -97.35199 | 36106 ft | 400 kts | 297° |
| 2026-05-06 23:13 | 40.16921 | -97.40855 | 36118 ft | 401 kts | 297° |
| 2026-05-06 23:13 | 40.20434 | -97.46527 | 36114 ft | 401 kts | 297° |
| 2026-05-06 23:14 | 40.23946 | -97.52210 | 36117 ft | 402 kts | 297° |
| 2026-05-06 23:14 | 40.27467 | -97.57916 | 36120 ft | 403 kts | 297° |
| 2026-05-06 23:15 | 40.30990 | -97.63637 | 36122 ft | 404 kts | 297° |
| 2026-05-06 23:15 | 40.34517 | -97.69375 | 36119 ft | 405 kts | 297° |
| 2026-05-06 23:16 | 40.38050 | -97.75131 | 36119 ft | 405 kts | 297° |
| 2026-05-06 23:16 | 40.41562 | -97.80865 | 36119 ft | 406 kts | 297° |
| 2026-05-06 23:17 | 40.45097 | -97.86647 | 36122 ft | 407 kts | 297° |
| 2026-05-06 23:17 | 40.48637 | -97.92448 | 36125 ft | 407 kts | 297° |
| 2026-05-06 23:18 | 40.52179 | -97.98264 | 36114 ft | 408 kts | 298° |
| 2026-05-06 23:18 | 40.55727 | -98.04100 | 36120 ft | 409 kts | 298° |
| 2026-05-06 23:19 | 40.59277 | -98.09952 | 36121 ft | 410 kts | 298° |
| 2026-05-06 23:19 | 40.62835 | -98.15827 | 36120 ft | 411 kts | 298° |
| 2026-05-06 23:20 | 40.66399 | -98.21724 | 36118 ft | 412 kts | 298° |
| 2026-05-06 23:20 | 40.69966 | -98.27636 | 36109 ft | 413 kts | 298° |
| 2026-05-06 23:21 | 40.73536 | -98.33565 | 36110 ft | 414 kts | 298° |
| 2026-05-06 23:21 | 40.77129 | -98.39510 | 36110 ft | 415 kts | 299° |
| 2026-05-06 23:22 | 40.80818 | -98.45402 | 36112 ft | 417 kts | 300° |
| 2026-05-06 23:22 | 40.84531 | -98.51300 | 36106 ft | 418 kts | 300° |
| 2026-05-06 23:23 | 40.88241 | -98.57226 | 36109 ft | 419 kts | 300° |
| 2026-05-06 23:23 | 40.91951 | -98.63179 | 36109 ft | 420 kts | 300° |
| 2026-05-06 23:24 | 40.95665 | -98.69154 | 36115 ft | 421 kts | 300° |
| 2026-05-06 23:24 | 40.99384 | -98.75149 | 36115 ft | 422 kts | 300° |
| 2026-05-06 23:25 | 41.03105 | -98.81158 | 36113 ft | 423 kts | 301° |
| 2026-05-06 23:25 | 41.06833 | -98.87191 | 36108 ft | 423 kts | 301° |
| 2026-05-06 23:26 | 41.10562 | -98.93237 | 36113 ft | 424 kts | 301° |
| 2026-05-06 23:26 | 41.13666 | -98.98279 | 36108 ft | 425 kts | 301° |
| 2026-05-06 23:27 | 41.17404 | -99.04361 | 36100 ft | 426 kts | 301° |
| 2026-05-06 23:27 | 41.21752 | -99.11452 | 36096 ft | 427 kts | 301° |
| 2026-05-06 23:28 | 41.24828 | -99.16632 | 36097 ft | 425 kts | 299° |
| 2026-05-06 23:28 | 41.28276 | -99.22999 | 36096 ft | 425 kts | 298° |
| 2026-05-06 23:29 | 41.31694 | -99.29408 | 36092 ft | 426 kts | 298° |
| 2026-05-06 23:29 | 41.35128 | -99.35839 | 36085 ft | 427 kts | 299° |
| 2026-05-06 23:30 | 41.38573 | -99.42281 | 36080 ft | 428 kts | 299° |
| 2026-05-06 23:30 | 41.42029 | -99.48746 | 36067 ft | 429 kts | 299° |
| 2026-05-06 23:31 | 41.45484 | -99.55224 | 36071 ft | 429 kts | 300° |
| 2026-05-06 23:31 | 41.48944 | -99.61724 | 36065 ft | 430 kts | 300° |
| 2026-05-06 23:32 | 41.52406 | -99.68242 | 36063 ft | 431 kts | 300° |
| 2026-05-06 23:32 | 41.55873 | -99.74783 | 36077 ft | 432 kts | 300° |
| 2026-05-06 23:33 | 41.59314 | -99.81289 | 36077 ft | 432 kts | 300° |
| 2026-05-06 23:33 | 41.62782 | -99.87859 | 36080 ft | 433 kts | 300° |
| 2026-05-06 23:34 | 41.66249 | -99.94445 | 36081 ft | 433 kts | 301° |
| 2026-05-06 23:34 | 41.69714 | -100.01039 | 36088 ft | 433 kts | 301° |
| 2026-05-06 23:35 | 41.73176 | -100.07643 | 36094 ft | 433 kts | 301° |
| 2026-05-06 23:35 | 41.76637 | -100.14257 | 36078 ft | 434 kts | 301° |
| 2026-05-06 23:36 | 41.80099 | -100.20888 | 36077 ft | 434 kts | 301° |
| 2026-05-06 23:36 | 41.83560 | -100.27532 | 36072 ft | 435 kts | 301° |
| 2026-05-06 23:37 | 41.87023 | -100.34196 | 36069 ft | 435 kts | 302° |
| 2026-05-06 23:37 | 41.90484 | -100.40869 | 36068 ft | 436 kts | 302° |
| 2026-05-06 23:38 | 41.93945 | -100.47559 | 36067 ft | 436 kts | 302° |
| 2026-05-06 23:38 | 41.97406 | -100.54260 | 36067 ft | 437 kts | 302° |
| 2026-05-06 23:39 | 42.00866 | -100.60976 | 36067 ft | 437 kts | 302° |
| 2026-05-06 23:39 | 42.04323 | -100.67701 | 36067 ft | 437 kts | 302° |
| 2026-05-06 23:40 | 42.07777 | -100.74434 | 36070 ft | 437 kts | 303° |
| 2026-05-06 23:40 | 42.11228 | -100.81176 | 36072 ft | 437 kts | 303° |
| 2026-05-06 23:41 | 42.14676 | -100.87929 | 36073 ft | 437 kts | 303° |
| 2026-05-06 23:41 | 42.18116 | -100.94681 | 36074 ft | 437 kts | 303° |
| 2026-05-06 23:42 | 42.21556 | -101.01448 | 36077 ft | 437 kts | 303° |
| 2026-05-06 23:42 | 42.24968 | -101.08175 | 36072 ft | 437 kts | 303° |
| 2026-05-06 23:43 | 42.28418 | -101.14992 | 36073 ft | 437 kts | 304° |
| 2026-05-06 23:43 | 42.31818 | -101.21726 | 36075 ft | 437 kts | 304° |
| 2026-05-06 23:44 | 42.35235 | -101.28509 | 36071 ft | 436 kts | 304° |
| 2026-05-06 23:44 | 42.38641 | -101.35295 | 36076 ft | 436 kts | 307° |
| 2026-05-06 23:45 | 42.42056 | -101.42100 | 36071 ft | 437 kts | 307° |
| 2026-05-06 23:45 | 42.45476 | -101.48929 | 36070 ft | 438 kts | 307° |
| 2026-05-06 23:46 | 42.48892 | -101.55771 | 36073 ft | 439 kts | 307° |
| 2026-05-06 23:46 | 42.52312 | -101.62638 | 36072 ft | 439 kts | 308° |
| 2026-05-06 23:47 | 42.55724 | -101.69505 | 36071 ft | 439 kts | 308° |
| 2026-05-06 23:47 | 42.59129 | -101.76374 | 36069 ft | 439 kts | 308° |
| 2026-05-06 23:48 | 42.62528 | -101.83245 | 36058 ft | 438 kts | 308° |
| 2026-05-06 23:48 | 42.65918 | -101.90114 | 36047 ft | 438 kts | 308° |
| 2026-05-06 23:49 | 42.69302 | -101.96986 | 36036 ft | 437 kts | 308° |
| 2026-05-06 23:49 | 42.72679 | -102.03860 | 36043 ft | 437 kts | 308° |
| 2026-05-06 23:50 | 42.76052 | -102.10739 | 36032 ft | 437 kts | 308° |
| 2026-05-06 23:50 | 42.81103 | -102.21075 | 36022 ft | 437 kts | 308° |
| 2026-05-06 23:51 | 42.84462 | -102.27969 | 36018 ft | 437 kts | 308° |
| 2026-05-06 23:51 | 42.87816 | -102.34867 | 36023 ft | 436 kts | 308° |
| 2026-05-06 23:52 | 42.91165 | -102.41770 | 36029 ft | 436 kts | 308° |
| 2026-05-06 23:52 | 42.94486 | -102.48634 | 36019 ft | 436 kts | 307° |
| 2026-05-06 23:53 | 42.97828 | -102.55554 | 36011 ft | 436 kts | 307° |
| 2026-05-06 23:53 | 43.01161 | -102.62472 | 36017 ft | 436 kts | 307° |
| 2026-05-06 23:54 | 43.04489 | -102.69399 | 36023 ft | 435 kts | 308° |
| 2026-05-06 23:54 | 43.07808 | -102.76321 | 36039 ft | 435 kts | 308° |
| 2026-05-06 23:55 | 43.11117 | -102.83242 | 36046 ft | 434 kts | 308° |
| 2026-05-06 23:55 | 43.14420 | -102.90160 | 36059 ft | 434 kts | 308° |
| 2026-05-06 23:56 | 43.17717 | -102.97086 | 36065 ft | 434 kts | 308° |
| 2026-05-06 23:56 | 43.21006 | -103.04011 | 36066 ft | 434 kts | 308° |
| 2026-05-06 23:57 | 43.24294 | -103.10948 | 36067 ft | 433 kts | 308° |
| 2026-05-06 23:57 | 43.27575 | -103.17889 | 36069 ft | 434 kts | 308° |
| 2026-05-06 23:58 | 43.30853 | -103.24840 | 36065 ft | 434 kts | 308° |
| 2026-05-06 23:58 | 43.34131 | -103.31806 | 36062 ft | 435 kts | 308° |
| 2026-05-06 23:59 | 43.37409 | -103.38790 | 36059 ft | 435 kts | 307° |
| 2026-05-06 23:59 | 43.40686 | -103.45789 | 36047 ft | 435 kts | 307° |
| 2026-05-07 00:00 | 43.43957 | -103.52789 | 36038 ft | 435 kts | 307° |
| 2026-05-07 00:00 | 43.46670 | -103.58609 | 36031 ft | 434 kts | 307° |
| 2026-05-07 00:01 | 43.50473 | -103.66790 | 36021 ft | 433 kts | 307° |
| 2026-05-07 00:01 | 43.53714 | -103.73778 | 36023 ft | 432 kts | 307° |
| 2026-05-07 00:02 | 43.56944 | -103.80756 | 36021 ft | 431 kts | 307° |
| 2026-05-07 00:02 | 43.60145 | -103.87690 | 36021 ft | 431 kts | 307° |
| 2026-05-07 00:03 | 43.63355 | -103.94660 | 36022 ft | 430 kts | 307° |
| 2026-05-07 00:03 | 43.66560 | -104.01636 | 36020 ft | 430 kts | 307° |
| 2026-05-07 00:04 | 43.69758 | -104.08614 | 36034 ft | 430 kts | 307° |
| 2026-05-07 00:04 | 43.72949 | -104.15593 | 36033 ft | 429 kts | 307° |
| 2026-05-07 00:05 | 43.76134 | -104.22575 | 36023 ft | 429 kts | 307° |
| 2026-05-07 00:05 | 43.79310 | -104.29554 | 36016 ft | 429 kts | 307° |
| 2026-05-07 00:06 | 43.82487 | -104.36551 | 36019 ft | 429 kts | 307° |
| 2026-05-07 00:06 | 43.85656 | -104.43549 | 36016 ft | 429 kts | 307° |
| 2026-05-07 00:07 | 43.88824 | -104.50562 | 36022 ft | 429 kts | 307° |
| 2026-05-07 00:07 | 43.91990 | -104.57586 | 36023 ft | 429 kts | 307° |
| 2026-05-07 00:08 | 43.95148 | -104.64612 | 36027 ft | 429 kts | 307° |
| 2026-05-07 00:08 | 43.98304 | -104.71650 | 36033 ft | 429 kts | 307° |
| 2026-05-07 00:09 | 44.01427 | -104.78631 | 36032 ft | 428 kts | 307° |
| 2026-05-07 00:09 | 44.04565 | -104.85661 | 36035 ft | 427 kts | 307° |
| 2026-05-07 00:10 | 44.07692 | -104.92684 | 36034 ft | 427 kts | 307° |
| 2026-05-07 00:10 | 44.10808 | -104.99699 | 36030 ft | 426 kts | 307° |
| 2026-05-07 00:11 | 44.13917 | -105.06716 | 36036 ft | 426 kts | 307° |
| 2026-05-07 00:11 | 44.17020 | -105.13734 | 36031 ft | 425 kts | 307° |
| 2026-05-07 00:12 | 44.20114 | -105.20752 | 36022 ft | 425 kts | 307° |
| 2026-05-07 00:12 | 44.23206 | -105.27781 | 36005 ft | 425 kts | 307° |
| 2026-05-07 00:13 | 44.26290 | -105.34812 | 35994 ft | 425 kts | 307° |
| 2026-05-07 00:13 | 44.29373 | -105.41856 | 35980 ft | 425 kts | 307° |
| 2026-05-07 00:14 | 44.32452 | -105.48905 | 35980 ft | 425 kts | 307° |
| 2026-05-07 00:14 | 44.35575 | -105.55913 | 35979 ft | 423 kts | 309° |
| 2026-05-07 00:15 | 44.38929 | -105.62674 | 35977 ft | 423 kts | 310° |
| 2026-05-07 00:15 | 44.41741 | -105.68267 | 35988 ft | 423 kts | 310° |
| 2026-05-07 00:16 | 44.45120 | -105.75022 | 35998 ft | 424 kts | 310° |
| 2026-05-07 00:16 | 44.48487 | -105.81798 | 36008 ft | 424 kts | 310° |
| 2026-05-07 00:17 | 44.51850 | -105.88595 | 36022 ft | 425 kts | 310° |
| 2026-05-07 00:17 | 44.55210 | -105.95405 | 36032 ft | 424 kts | 310° |
| 2026-05-07 00:18 | 44.58561 | -106.02215 | 36036 ft | 424 kts | 310° |
| 2026-05-07 00:18 | 44.61909 | -106.09031 | 36029 ft | 424 kts | 310° |
| 2026-05-07 00:19 | 44.65250 | -106.15848 | 36024 ft | 424 kts | 310° |
| 2026-05-07 00:19 | 44.68584 | -106.22667 | 36028 ft | 423 kts | 309° |
| 2026-05-07 00:20 | 44.71912 | -106.29493 | 36024 ft | 423 kts | 309° |
| 2026-05-07 00:20 | 44.75229 | -106.36312 | 36014 ft | 422 kts | 309° |
| 2026-05-07 00:21 | 44.78538 | -106.43128 | 36023 ft | 422 kts | 309° |
| 2026-05-07 00:21 | 44.81840 | -106.49949 | 36017 ft | 421 kts | 309° |
| 2026-05-07 00:22 | 44.85134 | -106.56767 | 35999 ft | 421 kts | 309° |
| 2026-05-07 00:22 | 44.88423 | -106.63591 | 35996 ft | 421 kts | 309° |
| 2026-05-07 00:23 | 44.91706 | -106.70420 | 35984 ft | 420 kts | 309° |
| 2026-05-07 00:23 | 44.94982 | -106.77252 | 35987 ft | 420 kts | 309° |
| 2026-05-07 00:24 | 44.98252 | -106.84084 | 35982 ft | 420 kts | 309° |
| 2026-05-07 00:24 | 45.01511 | -106.90910 | 35981 ft | 419 kts | 309° |
| 2026-05-07 00:25 | 45.04765 | -106.97743 | 35986 ft | 419 kts | 309° |
| 2026-05-07 00:25 | 45.07990 | -107.04533 | 35985 ft | 418 kts | 309° |
| 2026-05-07 00:26 | 45.11229 | -107.11367 | 35996 ft | 418 kts | 309° |
| 2026-05-07 00:26 | 45.14465 | -107.18209 | 35989 ft | 418 kts | 309° |
| 2026-05-07 00:27 | 45.17702 | -107.25071 | 35982 ft | 419 kts | 309° |
| 2026-05-07 00:27 | 45.20934 | -107.31942 | 35979 ft | 419 kts | 309° |
| 2026-05-07 00:28 | 45.24166 | -107.38827 | 35978 ft | 419 kts | 308° |
| 2026-05-07 00:28 | 45.27395 | -107.45722 | 35981 ft | 419 kts | 308° |
| 2026-05-07 00:29 | 45.30619 | -107.52624 | 35977 ft | 419 kts | 308° |
| 2026-05-07 00:30 | 45.37054 | -107.66450 | 35963 ft | 420 kts | 308° |
| 2026-05-07 00:30 | 45.40271 | -107.73385 | 35958 ft | 420 kts | 308° |
| 2026-05-07 00:31 | 45.43489 | -107.80341 | 35948 ft | 421 kts | 308° |
| 2026-05-07 00:31 | 45.46701 | -107.87302 | 35952 ft | 420 kts | 308° |
| 2026-05-07 00:32 | 45.49910 | -107.94274 | 35946 ft | 421 kts | 308° |
| 2026-05-07 00:32 | 45.53112 | -108.01247 | 35941 ft | 420 kts | 307° |
| 2026-05-07 00:33 | 45.56286 | -108.08176 | 35936 ft | 420 kts | 307° |
| 2026-05-07 00:33 | 45.59472 | -108.15150 | 35934 ft | 419 kts | 307° |
| 2026-05-07 00:34 | 45.62655 | -108.22132 | 35927 ft | 419 kts | 307° |
| 2026-05-07 00:34 | 45.65831 | -108.29116 | 35915 ft | 419 kts | 307° |
| 2026-05-07 00:35 | 45.68999 | -108.36101 | 35904 ft | 419 kts | 307° |
| 2026-05-07 00:35 | 45.72162 | -108.43092 | 35909 ft | 418 kts | 307° |
| 2026-05-07 00:36 | 45.75318 | -108.50085 | 35908 ft | 418 kts | 307° |
| 2026-05-07 00:36 | 45.78468 | -108.57081 | 35902 ft | 418 kts | 307° |
| 2026-05-07 00:37 | 45.81615 | -108.64087 | 35904 ft | 418 kts | 306° |
| 2026-05-07 00:37 | 45.84759 | -108.71099 | 35892 ft | 419 kts | 306° |
| 2026-05-07 00:38 | 45.87911 | -108.78128 | 35897 ft | 419 kts | 306° |
| 2026-05-07 00:38 | 45.91070 | -108.85174 | 35898 ft | 420 kts | 306° |
| 2026-05-07 00:39 | 45.94235 | -108.92240 | 35901 ft | 421 kts | 306° |
| 2026-05-07 00:39 | 45.97381 | -108.99266 | 35901 ft | 421 kts | 306° |
| 2026-05-07 00:40 | 46.00549 | -109.06342 | 35900 ft | 421 kts | 306° |
| 2026-05-07 00:40 | 46.03714 | -109.13421 | 35901 ft | 421 kts | 306° |
| 2026-05-07 00:41 | 46.06898 | -109.20544 | 35894 ft | 420 kts | 306° |
| 2026-05-07 00:41 | 46.10061 | -109.27624 | 35895 ft | 420 kts | 306° |
| 2026-05-07 00:42 | 46.13204 | -109.34664 | 35897 ft | 421 kts | 306° |
| 2026-05-07 00:42 | 46.16370 | -109.41762 | 35889 ft | 421 kts | 306° |
| 2026-05-07 00:43 | 46.19533 | -109.48855 | 35891 ft | 421 kts | 305° |
| 2026-05-07 00:43 | 46.22698 | -109.55959 | 35895 ft | 421 kts | 305° |
| 2026-05-07 00:44 | 46.25866 | -109.63075 | 35896 ft | 421 kts | 305° |
| 2026-05-07 00:44 | 46.29037 | -109.70199 | 35894 ft | 421 kts | 305° |
| 2026-05-07 00:45 | 46.32208 | -109.77328 | 35901 ft | 422 kts | 305° |
| 2026-05-07 00:45 | 46.35377 | -109.84458 | 35901 ft | 422 kts | 305° |
| 2026-05-07 00:46 | 46.38555 | -109.91612 | 35903 ft | 422 kts | 305° |
| 2026-05-07 00:46 | 46.41729 | -109.98763 | 35905 ft | 422 kts | 305° |
| 2026-05-07 00:47 | 46.44906 | -110.05922 | 35911 ft | 422 kts | 305° |
| 2026-05-07 00:47 | 46.48080 | -110.13084 | 35919 ft | 422 kts | 305° |
| 2026-05-07 00:48 | 46.51252 | -110.20247 | 35921 ft | 421 kts | 305° |
| 2026-05-07 00:48 | 46.54418 | -110.27402 | 35936 ft | 421 kts | 305° |
| 2026-05-07 00:49 | 46.57579 | -110.34555 | 35930 ft | 421 kts | 305° |
| 2026-05-07 00:49 | 46.60739 | -110.41708 | 35941 ft | 420 kts | 305° |
| 2026-05-07 00:50 | 46.63898 | -110.48868 | 35932 ft | 420 kts | 305° |
| 2026-05-07 00:50 | 46.67049 | -110.56018 | 35945 ft | 419 kts | 305° |
| 2026-05-07 00:51 | 46.70193 | -110.63162 | 35928 ft | 419 kts | 305° |
| 2026-05-07 00:51 | 46.73334 | -110.70298 | 35929 ft | 418 kts | 305° |
| 2026-05-07 00:52 | 46.76465 | -110.77421 | 35931 ft | 418 kts | 305° |
| 2026-05-07 00:52 | 46.79602 | -110.84562 | 35924 ft | 417 kts | 305° |
| 2026-05-07 00:53 | 46.82730 | -110.91686 | 35918 ft | 416 kts | 305° |
| 2026-05-07 00:53 | 46.85829 | -110.98751 | 35912 ft | 416 kts | 305° |
| 2026-05-07 00:54 | 46.88949 | -111.05869 | 35913 ft | 416 kts | 305° |
| 2026-05-07 00:54 | 46.92067 | -111.12987 | 35905 ft | 416 kts | 305° |
| 2026-05-07 00:55 | 46.95187 | -111.20106 | 35898 ft | 416 kts | 305° |
| 2026-05-07 00:55 | 46.98309 | -111.27235 | 35887 ft | 415 kts | 305° |
| 2026-05-07 00:56 | 47.01422 | -111.34353 | 35886 ft | 414 kts | 305° |
| 2026-05-07 00:56 | 47.04524 | -111.41452 | 35884 ft | 414 kts | 305° |
| 2026-05-07 00:57 | 47.07626 | -111.48558 | 35876 ft | 414 kts | 305° |
| 2026-05-07 00:57 | 47.10727 | -111.55656 | 35871 ft | 413 kts | 305° |
| 2026-05-07 00:58 | 47.13823 | -111.62744 | 35875 ft | 412 kts | 305° |
| 2026-05-07 00:58 | 47.16913 | -111.69829 | 35881 ft | 412 kts | 305° |
| 2026-05-07 00:59 | 47.21557 | -111.80486 | 35880 ft | 413 kts | 305° |
| 2026-05-07 01:00 | 47.24651 | -111.87596 | 35881 ft | 412 kts | 305° |
| 2026-05-07 01:00 | 47.27741 | -111.94702 | 35889 ft | 412 kts | 304° |
| 2026-05-07 01:01 | 47.30829 | -112.01811 | 35889 ft | 412 kts | 304° |
| 2026-05-07 01:01 | 47.33918 | -112.08920 | 35890 ft | 412 kts | 304° |
| 2026-05-07 01:02 | 47.37004 | -112.16024 | 35897 ft | 411 kts | 304° |
| 2026-05-07 01:02 | 47.39569 | -112.21935 | 35906 ft | 411 kts | 304° |
| 2026-05-07 01:03 | 47.42651 | -112.29041 | 35901 ft | 411 kts | 304° |
| 2026-05-07 01:03 | 47.45732 | -112.36145 | 35908 ft | 411 kts | 304° |
| 2026-05-07 01:04 | 47.48814 | -112.43253 | 35902 ft | 410 kts | 304° |
| 2026-05-07 01:04 | 47.51888 | -112.50349 | 35933 ft | 409 kts | 304° |
| 2026-05-07 01:05 | 47.54961 | -112.57441 | 35922 ft | 409 kts | 304° |
| 2026-05-07 01:05 | 47.58031 | -112.64528 | 35926 ft | 409 kts | 304° |
| 2026-05-07 01:06 | 47.61105 | -112.71627 | 35937 ft | 410 kts | 304° |
| 2026-05-07 01:06 | 47.64187 | -112.78734 | 35933 ft | 410 kts | 304° |
| 2026-05-07 01:07 | 47.67280 | -112.85850 | 35931 ft | 411 kts | 304° |
| 2026-05-07 01:07 | 47.70378 | -112.92990 | 35942 ft | 412 kts | 304° |
| 2026-05-07 01:08 | 47.73479 | -113.00143 | 35967 ft | 412 kts | 304° |
| 2026-05-07 01:08 | 47.76585 | -113.07303 | 35951 ft | 412 kts | 303° |
| 2026-05-07 01:09 | 47.79693 | -113.14473 | 35974 ft | 413 kts | 304° |
| 2026-05-07 01:09 | 47.82802 | -113.21652 | 35956 ft | 413 kts | 303° |
| 2026-05-07 01:09 | 47.84077 | -113.25462 | 35980 ft | 414 kts | 290° |
| 2026-05-07 01:10 | 47.84656 | -113.29685 | 35974 ft | 419 kts | 280° |
| 2026-05-07 01:10 | 47.84375 | -113.38445 | 35975 ft | 433 kts | 263° |
| 2026-05-07 01:11 | 47.82936 | -113.47185 | 35968 ft | 435 kts | 262° |
| 2026-05-07 01:11 | 47.81460 | -113.55927 | 35959 ft | 437 kts | 262° |
| 2026-05-07 01:12 | 47.80019 | -113.64646 | 35958 ft | 437 kts | 263° |
| 2026-05-07 01:12 | 47.78583 | -113.73448 | 35936 ft | 438 kts | 263° |
| 2026-05-07 01:13 | 47.77175 | -113.82084 | 35948 ft | 438 kts | 263° |
| 2026-05-07 01:13 | 47.75855 | -113.90148 | 35930 ft | 438 kts | 263° |
| 2026-05-07 01:14 | 47.74409 | -113.98925 | 35923 ft | 437 kts | 263° |
| 2026-05-07 01:14 | 47.72957 | -114.07687 | 35918 ft | 437 kts | 262° |
| 2026-05-07 01:15 | 47.71500 | -114.16427 | 35920 ft | 436 kts | 262° |
| 2026-05-07 01:15 | 47.70039 | -114.25159 | 35921 ft | 435 kts | 262° |
| 2026-05-07 01:16 | 47.68599 | -114.33717 | 35909 ft | 435 kts | 262° |
| 2026-05-07 01:16 | 47.67128 | -114.42425 | 35908 ft | 435 kts | 263° |
| 2026-05-07 01:17 | 47.65649 | -114.51130 | 35904 ft | 436 kts | 262° |
| 2026-05-07 01:17 | 47.64163 | -114.59839 | 35898 ft | 436 kts | 262° |
| 2026-05-07 01:18 | 47.62667 | -114.68547 | 35895 ft | 435 kts | 262° |
| 2026-05-07 01:18 | 47.61169 | -114.77231 | 35903 ft | 435 kts | 262° |
| 2026-05-07 01:19 | 47.59667 | -114.85903 | 35911 ft | 434 kts | 262° |
| 2026-05-07 01:19 | 47.58156 | -114.94578 | 35898 ft | 435 kts | 262° |
| 2026-05-07 01:20 | 47.56636 | -115.03258 | 35900 ft | 436 kts | 262° |
| 2026-05-07 01:20 | 47.55110 | -115.11943 | 35911 ft | 437 kts | 262° |
| 2026-05-07 01:21 | 47.53570 | -115.20655 | 35905 ft | 438 kts | 262° |
| 2026-05-07 01:21 | 47.52023 | -115.29366 | 35903 ft | 438 kts | 262° |
| 2026-05-07 01:22 | 47.50469 | -115.38075 | 35898 ft | 438 kts | 262° |
| 2026-05-07 01:22 | 47.48907 | -115.46785 | 35903 ft | 438 kts | 262° |
| 2026-05-07 01:23 | 47.47341 | -115.55481 | 35902 ft | 437 kts | 262° |
| 2026-05-07 01:23 | 47.45863 | -115.64150 | 35905 ft | 429 kts | 268° |
| 2026-05-07 01:23 | 47.45794 | -115.68485 | 35898 ft | 415 kts | 281° |
| 2026-05-07 01:24 | 47.46120 | -115.72726 | 35917 ft | 417 kts | 281° |
| 2026-05-07 01:24 | 47.46714 | -115.81219 | 35902 ft | 420 kts | 280° |
| 2026-05-07 01:25 | 47.47254 | -115.89798 | 35922 ft | 420 kts | 280° |
| 2026-05-07 01:25 | 47.47779 | -115.98422 | 35933 ft | 423 kts | 280° |
| 2026-05-07 01:26 | 47.48298 | -116.07095 | 35925 ft | 423 kts | 280° |
| 2026-05-07 01:26 | 47.48809 | -116.15737 | 35942 ft | 421 kts | 280° |
| 2026-05-07 01:27 | 47.49311 | -116.24356 | 35948 ft | 420 kts | 279° |
| 2026-05-07 01:27 | 47.49805 | -116.32952 | 35948 ft | 420 kts | 279° |
| 2026-05-07 01:28 | 47.50295 | -116.41560 | 35950 ft | 420 kts | 279° |
| 2026-05-07 01:28 | 47.50779 | -116.50158 | 35950 ft | 419 kts | 279° |
| 2026-05-07 01:29 | 47.51256 | -116.58756 | 35945 ft | 419 kts | 279° |
| 2026-05-07 01:29 | 47.51724 | -116.67352 | 35957 ft | 420 kts | 279° |
| 2026-05-07 01:30 | 47.52187 | -116.75953 | 35958 ft | 419 kts | 279° |
| 2026-05-07 01:30 | 47.52644 | -116.84556 | 35947 ft | 420 kts | 279° |
| 2026-05-07 01:31 | 47.53094 | -116.93161 | 35948 ft | 419 kts | 279° |
| 2026-05-07 01:31 | 47.53538 | -117.01765 | 35943 ft | 419 kts | 279° |
| 2026-05-07 01:32 | 47.53974 | -117.10324 | 35928 ft | 420 kts | 279° |
| 2026-05-07 01:32 | 47.54403 | -117.18952 | 35923 ft | 421 kts | 279° |
| 2026-05-07 01:33 | 47.54831 | -117.27606 | 35919 ft | 421 kts | 279° |
| 2026-05-07 01:33 | 47.55252 | -117.36256 | 35922 ft | 422 kts | 279° |
| 2026-05-07 01:34 | 47.55666 | -117.44918 | 35942 ft | 422 kts | 279° |
| 2026-05-07 01:34 | 47.56075 | -117.53601 | 35943 ft | 423 kts | 279° |
| 2026-05-07 01:35 | 47.56478 | -117.62286 | 35934 ft | 423 kts | 279° |
| 2026-05-07 01:35 | 47.57171 | -117.70895 | 35936 ft | 420 kts | 283° |
| 2026-05-07 01:36 | 47.58051 | -117.79450 | 35933 ft | 420 kts | 283° |
| 2026-05-07 01:36 | 47.58912 | -117.88019 | 35923 ft | 420 kts | 283° |
| 2026-05-07 01:37 | 47.59737 | -117.96589 | 35911 ft | 421 kts | 282° |
| 2026-05-07 01:37 | 47.60543 | -118.05175 | 35917 ft | 420 kts | 282° |
| 2026-05-07 01:38 | 47.61340 | -118.13757 | 35878 ft | 421 kts | 282° |
| 2026-05-07 01:38 | 47.62130 | -118.22341 | 35888 ft | 420 kts | 282° |
| 2026-05-07 01:39 | 47.62914 | -118.30928 | 35880 ft | 420 kts | 282° |
| 2026-05-07 01:39 | 47.63693 | -118.39520 | 35871 ft | 421 kts | 282° |
| 2026-05-07 01:40 | 47.64466 | -118.48121 | 35875 ft | 421 kts | 282° |
| 2026-05-07 01:40 | 47.65232 | -118.56726 | 35873 ft | 421 kts | 282° |
| 2026-05-07 01:41 | 47.65993 | -118.65343 | 35876 ft | 422 kts | 282° |
| 2026-05-07 01:41 | 47.66745 | -118.73918 | 35869 ft | 423 kts | 282° |
| 2026-05-07 01:42 | 47.67495 | -118.82569 | 35867 ft | 423 kts | 282° |
| 2026-05-07 01:42 | 47.68241 | -118.91235 | 35865 ft | 424 kts | 282° |
| 2026-05-07 01:43 | 47.68979 | -118.99915 | 35868 ft | 424 kts | 282° |
| 2026-05-07 01:43 | 47.69712 | -119.08597 | 35869 ft | 424 kts | 282° |
| 2026-05-07 01:44 | 47.70437 | -119.17271 | 35867 ft | 424 kts | 282° |
| 2026-05-07 01:44 | 47.71157 | -119.25958 | 35871 ft | 424 kts | 282° |
| 2026-05-07 01:45 | 47.71871 | -119.34650 | 35867 ft | 423 kts | 282° |
| 2026-05-07 01:45 | 47.72221 | -119.38958 | 35674 ft | 416 kts | 282° |
| 2026-05-07 01:45 | 47.72564 | -119.43187 | 35248 ft | 409 kts | 281° |
| 2026-05-07 01:45 | 47.72899 | -119.47345 | 34897 ft | 402 kts | 281° |
| 2026-05-07 01:46 | 47.73226 | -119.51425 | 34515 ft | 396 kts | 281° |
| 2026-05-07 01:46 | 47.73551 | -119.55484 | 33758 ft | 398 kts | 281° |
| 2026-05-07 01:46 | 47.73887 | -119.59646 | 32824 ft | 415 kts | 281° |
| 2026-05-07 01:46 | 47.74234 | -119.63966 | 32139 ft | 426 kts | 280° |
| 2026-05-07 01:47 | 47.74584 | -119.68381 | 31547 ft | 434 kts | 280° |
| 2026-05-07 01:47 | 47.74934 | -119.72863 | 31058 ft | 438 kts | 279° |
| 2026-05-07 01:47 | 47.75284 | -119.77369 | 30815 ft | 436 kts | 279° |
| 2026-05-07 01:48 | 47.75972 | -119.86316 | 30760 ft | 435 kts | 279° |
| 2026-05-07 01:48 | 47.76314 | -119.90776 | 30444 ft | 433 kts | 279° |
| 2026-05-07 01:48 | 47.76654 | -119.95222 | 30048 ft | 434 kts | 279° |
| 2026-05-07 01:48 | 47.76994 | -119.99680 | 29646 ft | 434 kts | 279° |
| 2026-05-07 01:49 | 47.77330 | -120.04120 | 29303 ft | 432 kts | 279° |
| 2026-05-07 01:49 | 47.77664 | -120.08538 | 29022 ft | 429 kts | 278° |
| 2026-05-07 01:49 | 47.77881 | -120.11450 | 28801 ft | 428 kts | 278° |
| 2026-05-07 01:49 | 47.78209 | -120.15854 | 28462 ft | 427 kts | 278° |
| 2026-05-07 01:50 | 47.78534 | -120.20238 | 28132 ft | 427 kts | 279° |
| 2026-05-07 01:50 | 47.78962 | -120.26044 | 27729 ft | 425 kts | 278° |
| 2026-05-07 01:50 | 47.79178 | -120.28993 | 27522 ft | 424 kts | 278° |
| 2026-05-07 01:50 | 47.79495 | -120.33344 | 27187 ft | 424 kts | 278° |
| 2026-05-07 01:51 | 47.79812 | -120.37704 | 26907 ft | 422 kts | 278° |
| 2026-05-07 01:51 | 47.80125 | -120.42037 | 26637 ft | 421 kts | 278° |
| 2026-05-07 01:51 | 47.80436 | -120.46361 | 26363 ft | 420 kts | 278° |
| 2026-05-07 01:51 | 47.80744 | -120.50673 | 26113 ft | 419 kts | 278° |
| 2026-05-07 01:52 | 47.81050 | -120.54973 | 25779 ft | 417 kts | 278° |
| 2026-05-07 01:52 | 47.81353 | -120.59251 | 25184 ft | 415 kts | 278° |
| 2026-05-07 01:52 | 47.81651 | -120.63495 | 24605 ft | 411 kts | 278° |
| 2026-05-07 01:52 | 47.81945 | -120.67701 | 24038 ft | 407 kts | 278° |
| 2026-05-07 01:53 | 47.82237 | -120.71865 | 23418 ft | 404 kts | 278° |
| 2026-05-07 01:53 | 47.82523 | -120.76002 | 22800 ft | 399 kts | 278° |
| 2026-05-07 01:53 | 47.82804 | -120.80086 | 22212 ft | 395 kts | 278° |
| 2026-05-07 01:53 | 47.83080 | -120.84122 | 21655 ft | 390 kts | 278° |
| 2026-05-07 01:54 | 47.83351 | -120.88107 | 21126 ft | 385 kts | 278° |
| 2026-05-07 01:54 | 47.83618 | -120.92047 | 20603 ft | 381 kts | 278° |
| 2026-05-07 01:54 | 47.83878 | -120.95897 | 20085 ft | 377 kts | 278° |
| 2026-05-07 01:54 | 47.84137 | -120.99757 | 19560 ft | 373 kts | 278° |
| 2026-05-07 01:55 | 47.84391 | -121.03570 | 19069 ft | 369 kts | 278° |
| 2026-05-07 01:55 | 47.84643 | -121.07354 | 18518 ft | 367 kts | 277° |
| 2026-05-07 01:55 | 47.84894 | -121.11141 | 17827 ft | 367 kts | 277° |
| 2026-05-07 01:55 | 47.85142 | -121.14914 | 17249 ft | 365 kts | 277° |
| 2026-05-07 01:56 | 47.85391 | -121.18702 | 16732 ft | 361 kts | 277° |
| 2026-05-07 01:56 | 47.85631 | -121.22346 | 16234 ft | 357 kts | 276° |
| 2026-05-07 01:56 | 47.85867 | -121.26014 | 15723 ft | 353 kts | 277° |
| 2026-05-07 01:56 | 47.86096 | -121.29632 | 15243 ft | 349 kts | 277° |
| 2026-05-07 01:57 | 47.86320 | -121.33204 | 14759 ft | 345 kts | 276° |
| 2026-05-07 01:57 | 47.86546 | -121.36747 | 14310 ft | 342 kts | 277° |
| 2026-05-07 01:57 | 47.86775 | -121.40267 | 13807 ft | 341 kts | 277° |
| 2026-05-07 01:57 | 47.86998 | -121.43768 | 13288 ft | 339 kts | 276° |
| 2026-05-07 01:58 | 47.87217 | -121.47254 | 12873 ft | 335 kts | 276° |
| 2026-05-07 01:58 | 47.87429 | -121.50682 | 12826 ft | 342 kts | 276° |
| 2026-05-07 01:58 | 47.87653 | -121.54307 | 12721 ft | 350 kts | 276° |
| 2026-05-07 01:58 | 47.87875 | -121.57859 | 12533 ft | 334 kts | 276° |
| 2026-05-07 01:59 | 47.88080 | -121.61227 | 12343 ft | 318 kts | 276° |
| 2026-05-07 01:59 | 47.88274 | -121.64431 | 12221 ft | 307 kts | 276° |
| 2026-05-07 01:59 | 47.88369 | -121.67524 | 12086 ft | 292 kts | 265° |
| 2026-05-07 01:59 | 47.87810 | -121.70355 | 12004 ft | 281 kts | 249° |
| 2026-05-07 02:00 | 47.86826 | -121.72814 | 11992 ft | 276 kts | 236° |
| 2026-05-07 02:00 | 47.85479 | -121.74880 | 12003 ft | 281 kts | 227° |
| 2026-05-07 02:00 | 47.84006 | -121.76818 | 11921 ft | 283 kts | 226° |
| 2026-05-07 02:00 | 47.82522 | -121.78746 | 11390 ft | 283 kts | 226° |
| 2026-05-07 02:01 | 47.81058 | -121.80679 | 10763 ft | 279 kts | 226° |
| 2026-05-07 02:01 | 47.79639 | -121.82577 | 10138 ft | 270 kts | 226° |
| 2026-05-07 02:01 | 47.78258 | -121.84438 | 9602 ft | 264 kts | 226° |
| 2026-05-07 02:01 | 47.76916 | -121.86246 | 9130 ft | 256 kts | 226° |
| 2026-05-07 02:02 | 47.75607 | -121.88011 | 8600 ft | 252 kts | 226° |
| 2026-05-07 02:02 | 47.74316 | -121.89750 | 8030 ft | 250 kts | 226° |
| 2026-05-07 02:02 | 47.73030 | -121.91483 | 7493 ft | 247 kts | 225° |
| 2026-05-07 02:02 | 47.71797 | -121.93140 | 7280 ft | 230 kts | 225° |
| 2026-05-07 02:03 | 47.70649 | -121.94683 | 7090 ft | 215 kts | 226° |
| 2026-05-07 02:03 | 47.69570 | -121.96135 | 6787 ft | 211 kts | 225° |
| 2026-05-07 02:03 | 47.68467 | -121.97626 | 6811 ft | 218 kts | 225° |
| 2026-05-07 02:03 | 47.67329 | -121.99160 | 6778 ft | 222 kts | 225° |
| 2026-05-07 02:04 | 47.66184 | -122.00701 | 6773 ft | 222 kts | 225° |
| 2026-05-07 02:04 | 47.65051 | -122.02225 | 6766 ft | 221 kts | 225° |
| 2026-05-07 02:04 | 47.63901 | -122.03770 | 6755 ft | 222 kts | 225° |
| 2026-05-07 02:04 | 47.62760 | -122.05301 | 6740 ft | 221 kts | 225° |
| 2026-05-07 02:05 | 47.61626 | -122.06825 | 6716 ft | 219 kts | 225° |
| 2026-05-07 02:05 | 47.60497 | -122.08341 | 6313 ft | 221 kts | 224° |
| 2026-05-07 02:05 | 47.59336 | -122.09896 | 5735 ft | 225 kts | 224° |
| 2026-05-07 02:05 | 47.58132 | -122.11506 | 5516 ft | 244 kts | 223° |
| 2026-05-07 02:06 | 47.56859 | -122.13208 | 5247 ft | 243 kts | 223° |
| 2026-05-07 02:06 | 47.55636 | -122.14885 | 4921 ft | 240 kts | 229° |
| 2026-05-07 02:06 | 47.54897 | -122.17039 | 4705 ft | 244 kts | 259° |
| 2026-05-07 02:06 | 47.55056 | -122.19516 | 4411 ft | 236 kts | 290° |
| 2026-05-07 02:07 | 47.55856 | -122.21524 | 4160 ft | 218 kts | 303° |
| 2026-05-07 02:07 | 47.57503 | -122.24992 | 3717 ft | 195 kts | 302° |
| 2026-05-07 02:07 | 47.58240 | -122.26597 | 3491 ft | 181 kts | 295° |
| 2026-05-07 02:08 | 47.58435 | -122.28309 | 3298 ft | 164 kts | 258° |
| 2026-05-07 02:08 | 47.58040 | -122.29895 | 3121 ft | 173 kts | 232° |
| 2026-05-07 02:08 | 47.57046 | -122.30846 | 3026 ft | 168 kts | 200° |
| 2026-05-07 02:08 | 47.55920 | -122.31340 | 3001 ft | 170 kts | 192° |
| 2026-05-07 02:09 | 47.54742 | -122.31583 | 2945 ft | 173 kts | 187° |
| 2026-05-07 02:09 | 47.53518 | -122.31728 | 2583 ft | 180 kts | 183° |
| 2026-05-07 02:09 | 47.52227 | -122.31749 | 2012 ft | 191 kts | 182° |
| 2026-05-07 02:09 | 47.50894 | -122.31757 | 1319 ft | 191 kts | 182° |
| 2026-05-07 02:10 | 47.49671 | -122.31790 | 1036 ft | 161 kts | 181° |
| 2026-05-07 02:10 | 47.48611 | -122.31766 | 755 ft | 147 kts | 182° |
| 2026-05-07 02:10 | 47.47584 | -122.31764 | 675 ft | 145 kts | 184° |
| 2026-05-07 02:10 | 47.46576 | -122.31781 | 466 ft | 141 kts | 184° |
| 2026-05-07 02:11 | 47.45614 | -122.31796 | 389 ft | 129 kts | 181° |
| 2026-05-07 02:11 | 47.44861 | -122.31804 | 389 ft | 88 kts | 180° |
| 2026-05-07 02:11 | 47.44592 | -122.31730 | 388 ft | 33 kts | 153° |
| 2026-05-07 02:11 | 47.44418 | -122.31607 | 388 ft | 16 kts | 145° |
| 2026-05-07 02:12 | 47.44327 | -122.31519 | 388 ft | 16 kts | 146° |
| 2026-05-07 02:12 | 47.44250 | -122.31405 | 388 ft | 16 kts | 128° |
| 2026-05-07 02:12 | 47.44216 | -122.31251 | 388 ft | 16 kts | 106° |
| 2026-05-07 02:12 | 47.44162 | -122.31105 | 388 ft | 17 kts | 135° |
| 2026-05-07 02:13 | 47.44064 | -122.31015 | 388 ft | 17 kts | 150° |
| 2026-05-07 02:13 | 47.43965 | -122.30928 | 388 ft | 17 kts | 141° |
| 2026-05-07 02:13 | 47.43904 | -122.30788 | 388 ft | 17 kts | 101° |
| 2026-05-07 02:13 | 47.43948 | -122.30646 | 388 ft | 17 kts | 31° |
| 2026-05-07 02:14 | 47.43990 | -122.30527 | 388 ft | 14 kts | 85° |
| 2026-05-07 02:14 | 47.43998 | -122.30395 | 388 ft | 11 kts | 84° |
| 2026-05-07 02:14 | 47.44015 | -122.30288 | 388 ft | 10 kts | 73° |
| 2026-05-07 02:14 | 47.44004 | -122.30217 | 388 ft | 5 kts | 79° |
| 2026-05-07 02:15 | 47.44013 | -122.30166 | 388 ft | 8 kts | 115° |
| 2026-05-07 02:15 | 47.43981 | -122.30184 | 388 ft | 2 kts | 212° |
| 2026-05-07 02:15 | 47.43974 | -122.30184 | 388 ft | 1 kts | 186° |
| 2026-05-07 02:16 | 47.43977 | -122.30184 | 388 ft | 0 kts | 178° |